sensor_id;sensor_type;location;lat;lon;timestamp;P1;durP1;ratioP1;P2;durP2;ratioP2
48040;SDS011;33815;48.386;11.738;2024-03-02T00:02:23;26.92;;;17.85;;
48040;SDS011;33815;48.386;11.738;2024-03-02T00:04:49;27.63;;;17.55;;
48040;SDS011;33815;48.386;11.738;2024-03-02T00:07:14;28.55;;;18.13;;
48040;SDS011;33815;48.386;11.738;2024-03-02T00:09:39;28.17;;;19.70;;
48040;SDS011;33815;48.386;11.738;2024-03-02T00:12:05;25.73;;;17.65;;
48040;SDS011;33815;48.386;11.738;2024-03-02T00:14:30;25.38;;;17.90;;
48040;SDS011;33815;48.386;11.738;2024-03-02T00:16:56;28.98;;;18.58;;
48040;SDS011;33815;48.386;11.738;2024-03-02T00:19:21;26.70;;;18.52;;
48040;SDS011;33815;48.386;11.738;2024-03-02T00:21:47;28.13;;;18.60;;
48040;SDS011;33815;48.386;11.738;2024-03-02T00:24:26;30.83;;;19.45;;
48040;SDS011;33815;48.386;11.738;2024-03-02T00:26:57;26.13;;;18.38;;
48040;SDS011;33815;48.386;11.738;2024-03-02T00:29:22;28.83;;;18.30;;
48040;SDS011;33815;48.386;11.738;2024-03-02T00:31:47;28.65;;;18.45;;
48040;SDS011;33815;48.386;11.738;2024-03-02T00:34:13;31.45;;;21.77;;
48040;SDS011;33815;48.386;11.738;2024-03-02T00:36:41;29.58;;;20.20;;
48040;SDS011;33815;48.386;11.738;2024-03-02T00:39:06;27.70;;;19.73;;
48040;SDS011;33815;48.386;11.738;2024-03-02T00:41:32;29.60;;;19.63;;
48040;SDS011;33815;48.386;11.738;2024-03-02T00:46:29;27.55;;;19.40;;
48040;SDS011;33815;48.386;11.738;2024-03-02T00:48:58;34.38;;;19.73;;
48040;SDS011;33815;48.386;11.738;2024-03-02T00:51:34;32.80;;;21.63;;
48040;SDS011;33815;48.386;11.738;2024-03-02T00:54:01;34.47;;;22.52;;
48040;SDS011;33815;48.386;11.738;2024-03-02T00:56:29;31.85;;;21.55;;
48040;SDS011;33815;48.386;11.738;2024-03-02T00:58:55;30.80;;;20.40;;
48040;SDS011;33815;48.386;11.738;2024-03-02T01:01:20;27.92;;;18.33;;
48040;SDS011;33815;48.386;11.738;2024-03-02T01:03:46;30.38;;;19.58;;
48040;SDS011;33815;48.386;11.738;2024-03-02T01:06:11;30.67;;;19.15;;
48040;SDS011;33815;48.386;11.738;2024-03-02T01:08:37;30.52;;;19.75;;
48040;SDS011;33815;48.386;11.738;2024-03-02T01:11:03;33.45;;;21.88;;
48040;SDS011;33815;48.386;11.738;2024-03-02T01:13:29;29.33;;;20.35;;
48040;SDS011;33815;48.386;11.738;2024-03-02T01:15:55;32.38;;;21.13;;
48040;SDS011;33815;48.386;11.738;2024-03-02T01:18:21;35.65;;;21.77;;
48040;SDS011;33815;48.386;11.738;2024-03-02T01:20:47;37.17;;;22.45;;
48040;SDS011;33815;48.386;11.738;2024-03-02T01:23:13;32.08;;;22.02;;
48040;SDS011;33815;48.386;11.738;2024-03-02T01:25:38;30.92;;;19.80;;
48040;SDS011;33815;48.386;11.738;2024-03-02T01:28:04;32.97;;;22.42;;
48040;SDS011;33815;48.386;11.738;2024-03-02T01:30:29;35.83;;;22.25;;
48040;SDS011;33815;48.386;11.738;2024-03-02T01:32:54;34.92;;;22.45;;
48040;SDS011;33815;48.386;11.738;2024-03-02T01:35:20;35.05;;;22.83;;
48040;SDS011;33815;48.386;11.738;2024-03-02T01:37:45;39.23;;;23.17;;
48040;SDS011;33815;48.386;11.738;2024-03-02T01:40:10;33.33;;;22.73;;
48040;SDS011;33815;48.386;11.738;2024-03-02T01:42:39;31.50;;;22.88;;
48040;SDS011;33815;48.386;11.738;2024-03-02T01:45:05;33.78;;;23.45;;
48040;SDS011;33815;48.386;11.738;2024-03-02T01:47:31;30.02;;;19.27;;
48040;SDS011;33815;48.386;11.738;2024-03-02T01:49:57;31.17;;;21.05;;
48040;SDS011;33815;48.386;11.738;2024-03-02T01:52:23;37.40;;;22.33;;
48040;SDS011;33815;48.386;11.738;2024-03-02T01:54:48;32.08;;;21.20;;
48040;SDS011;33815;48.386;11.738;2024-03-02T01:57:13;32.60;;;21.73;;
48040;SDS011;33815;48.386;11.738;2024-03-02T01:59:39;38.20;;;23.13;;
48040;SDS011;33815;48.386;11.738;2024-03-02T02:02:04;40.05;;;23.60;;
48040;SDS011;33815;48.386;11.738;2024-03-02T02:04:29;36.22;;;22.38;;
48040;SDS011;33815;48.386;11.738;2024-03-02T02:06:55;32.25;;;21.63;;
48040;SDS011;33815;48.386;11.738;2024-03-02T02:09:21;29.67;;;19.75;;
48040;SDS011;33815;48.386;11.738;2024-03-02T02:11:46;33.30;;;20.63;;
48040;SDS011;33815;48.386;11.738;2024-03-02T02:14:12;35.10;;;22.30;;
48040;SDS011;33815;48.386;11.738;2024-03-02T02:16:37;40.17;;;21.83;;
48040;SDS011;33815;48.386;11.738;2024-03-02T02:19:03;34.13;;;21.35;;
48040;SDS011;33815;48.386;11.738;2024-03-02T02:21:28;30.27;;;22.25;;
48040;SDS011;33815;48.386;11.738;2024-03-02T02:23:53;37.75;;;22.65;;
48040;SDS011;33815;48.386;11.738;2024-03-02T02:26:18;32.25;;;21.38;;
48040;SDS011;33815;48.386;11.738;2024-03-02T02:28:44;36.38;;;22.10;;
48040;SDS011;33815;48.386;11.738;2024-03-02T02:31:14;32.17;;;20.92;;
48040;SDS011;33815;48.386;11.738;2024-03-02T02:33:40;31.65;;;19.83;;
48040;SDS011;33815;48.386;11.738;2024-03-02T02:36:06;30.52;;;19.95;;
48040;SDS011;33815;48.386;11.738;2024-03-02T02:38:35;38.33;;;23.48;;
48040;SDS011;33815;48.386;11.738;2024-03-02T02:41:05;46.17;;;29.33;;
48040;SDS011;33815;48.386;11.738;2024-03-02T02:43:30;47.97;;;28.63;;
48040;SDS011;33815;48.386;11.738;2024-03-02T02:45:55;43.92;;;27.25;;
48040;SDS011;33815;48.386;11.738;2024-03-02T02:48:21;36.35;;;23.48;;
48040;SDS011;33815;48.386;11.738;2024-03-02T02:50:46;34.70;;;22.92;;
48040;SDS011;33815;48.386;11.738;2024-03-02T02:53:11;35.85;;;22.73;;
48040;SDS011;33815;48.386;11.738;2024-03-02T02:55:36;37.92;;;24.08;;
48040;SDS011;33815;48.386;11.738;2024-03-02T02:58:05;37.92;;;21.98;;
48040;SDS011;33815;48.386;11.738;2024-03-02T03:00:31;37.80;;;24.65;;
48040;SDS011;33815;48.386;11.738;2024-03-02T03:02:56;39.20;;;23.90;;
48040;SDS011;33815;48.386;11.738;2024-03-02T03:05:22;35.20;;;21.80;;
48040;SDS011;33815;48.386;11.738;2024-03-02T03:07:47;43.75;;;23.65;;
48040;SDS011;33815;48.386;11.738;2024-03-02T03:10:14;35.53;;;22.27;;
48040;SDS011;33815;48.386;11.738;2024-03-02T03:12:40;37.22;;;22.77;;
48040;SDS011;33815;48.386;11.738;2024-03-02T03:15:07;43.95;;;23.77;;
48040;SDS011;33815;48.386;11.738;2024-03-02T03:17:33;37.88;;;23.17;;
48040;SDS011;33815;48.386;11.738;2024-03-02T03:19:59;38.42;;;24.70;;
48040;SDS011;33815;48.386;11.738;2024-03-02T03:22:25;42.50;;;23.33;;
48040;SDS011;33815;48.386;11.738;2024-03-02T03:24:51;35.78;;;22.02;;
48040;SDS011;33815;48.386;11.738;2024-03-02T03:27:16;36.15;;;22.40;;
48040;SDS011;33815;48.386;11.738;2024-03-02T03:29:41;37.37;;;22.87;;
48040;SDS011;33815;48.386;11.738;2024-03-02T03:32:07;39.13;;;21.33;;
48040;SDS011;33815;48.386;11.738;2024-03-02T03:34:33;34.35;;;20.88;;
48040;SDS011;33815;48.386;11.738;2024-03-02T03:36:58;35.58;;;22.05;;
48040;SDS011;33815;48.386;11.738;2024-03-02T03:39:24;33.95;;;21.35;;
48040;SDS011;33815;48.386;11.738;2024-03-02T03:41:49;38.93;;;22.83;;
48040;SDS011;33815;48.386;11.738;2024-03-02T03:44:14;34.13;;;21.30;;
48040;SDS011;33815;48.386;11.738;2024-03-02T03:46:40;32.45;;;21.55;;
48040;SDS011;33815;48.386;11.738;2024-03-02T03:49:05;32.35;;;21.45;;
48040;SDS011;33815;48.386;11.738;2024-03-02T03:51:30;31.85;;;20.90;;
48040;SDS011;33815;48.386;11.738;2024-03-02T03:53:56;34.13;;;21.80;;
48040;SDS011;33815;48.386;11.738;2024-03-02T03:56:21;39.47;;;22.17;;
48040;SDS011;33815;48.386;11.738;2024-03-02T03:58:46;36.97;;;22.05;;
48040;SDS011;33815;48.386;11.738;2024-03-02T04:01:12;39.53;;;22.15;;
48040;SDS011;33815;48.386;11.738;2024-03-02T04:03:37;39.42;;;21.88;;
48040;SDS011;33815;48.386;11.738;2024-03-02T04:06:03;33.63;;;20.33;;
48040;SDS011;33815;48.386;11.738;2024-03-02T04:08:28;36.50;;;21.08;;
48040;SDS011;33815;48.386;11.738;2024-03-02T04:10:54;36.67;;;21.90;;
48040;SDS011;33815;48.386;11.738;2024-03-02T04:13:19;36.92;;;21.83;;
48040;SDS011;33815;48.386;11.738;2024-03-02T04:15:44;36.88;;;22.85;;
48040;SDS011;33815;48.386;11.738;2024-03-02T04:18:09;39.17;;;22.80;;
48040;SDS011;33815;48.386;11.738;2024-03-02T04:20:35;36.22;;;22.58;;
48040;SDS011;33815;48.386;11.738;2024-03-02T04:23:00;39.97;;;21.50;;
48040;SDS011;33815;48.386;11.738;2024-03-02T04:25:25;36.13;;;21.73;;
48040;SDS011;33815;48.386;11.738;2024-03-02T04:27:51;41.30;;;23.13;;
48040;SDS011;33815;48.386;11.738;2024-03-02T04:30:16;49.75;;;23.98;;
48040;SDS011;33815;48.386;11.738;2024-03-02T04:32:42;41.60;;;23.80;;
48040;SDS011;33815;48.386;11.738;2024-03-02T04:35:11;41.75;;;21.98;;
48040;SDS011;33815;48.386;11.738;2024-03-02T04:37:37;43.92;;;23.58;;
48040;SDS011;33815;48.386;11.738;2024-03-02T04:40:02;42.00;;;23.10;;
48040;SDS011;33815;48.386;11.738;2024-03-02T04:42:28;45.20;;;24.13;;
48040;SDS011;33815;48.386;11.738;2024-03-02T04:44:53;45.78;;;24.02;;
48040;SDS011;33815;48.386;11.738;2024-03-02T04:47:19;41.90;;;23.17;;
48040;SDS011;33815;48.386;11.738;2024-03-02T04:49:44;41.20;;;22.97;;
48040;SDS011;33815;48.386;11.738;2024-03-02T04:52:09;48.70;;;24.55;;
48040;SDS011;33815;48.386;11.738;2024-03-02T04:54:35;45.30;;;25.38;;
48040;SDS011;33815;48.386;11.738;2024-03-02T04:57:23;44.47;;;21.58;;
48040;SDS011;33815;48.386;11.738;2024-03-02T04:59:48;40.30;;;21.67;;
48040;SDS011;33815;48.386;11.738;2024-03-02T05:02:13;43.10;;;22.20;;
48040;SDS011;33815;48.386;11.738;2024-03-02T05:04:39;37.13;;;20.42;;
48040;SDS011;33815;48.386;11.738;2024-03-02T05:07:05;37.25;;;19.98;;
48040;SDS011;33815;48.386;11.738;2024-03-02T05:09:30;39.65;;;21.25;;
48040;SDS011;33815;48.386;11.738;2024-03-02T05:11:55;35.83;;;20.85;;
48040;SDS011;33815;48.386;11.738;2024-03-02T05:14:39;41.33;;;21.60;;
48040;SDS011;33815;48.386;11.738;2024-03-02T05:17:04;40.38;;;22.58;;
48040;SDS011;33815;48.386;11.738;2024-03-02T05:19:30;36.73;;;20.93;;
48040;SDS011;33815;48.386;11.738;2024-03-02T05:21:55;32.03;;;18.73;;
48040;SDS011;33815;48.386;11.738;2024-03-02T05:24:20;36.05;;;20.95;;
48040;SDS011;33815;48.386;11.738;2024-03-02T05:26:45;38.70;;;20.98;;
48040;SDS011;33815;48.386;11.738;2024-03-02T05:29:11;40.28;;;22.65;;
48040;SDS011;33815;48.386;11.738;2024-03-02T05:31:37;37.38;;;21.15;;
48040;SDS011;33815;48.386;11.738;2024-03-02T05:34:02;42.08;;;21.73;;
48040;SDS011;33815;48.386;11.738;2024-03-02T05:36:27;33.40;;;20.48;;
48040;SDS011;33815;48.386;11.738;2024-03-02T05:38:53;36.72;;;20.75;;
48040;SDS011;33815;48.386;11.738;2024-03-02T05:41:18;41.30;;;22.02;;
48040;SDS011;33815;48.386;11.738;2024-03-02T05:43:43;38.85;;;22.40;;
48040;SDS011;33815;48.386;11.738;2024-03-02T05:46:08;37.73;;;20.07;;
48040;SDS011;33815;48.386;11.738;2024-03-02T05:48:34;37.22;;;20.13;;
48040;SDS011;33815;48.386;11.738;2024-03-02T05:50:59;38.08;;;21.52;;
48040;SDS011;33815;48.386;11.738;2024-03-02T05:53:26;36.30;;;20.83;;
48040;SDS011;33815;48.386;11.738;2024-03-02T05:55:51;38.97;;;21.13;;
48040;SDS011;33815;48.386;11.738;2024-03-02T05:58:20;43.00;;;22.85;;
48040;SDS011;33815;48.386;11.738;2024-03-02T06:00:58;31.48;;;18.88;;
48040;SDS011;33815;48.386;11.738;2024-03-02T06:03:24;33.85;;;20.50;;
48040;SDS011;33815;48.386;11.738;2024-03-02T06:05:49;40.08;;;21.50;;
48040;SDS011;33815;48.386;11.738;2024-03-02T06:08:14;38.70;;;22.10;;
48040;SDS011;33815;48.386;11.738;2024-03-02T06:10:40;31.77;;;19.63;;
48040;SDS011;33815;48.386;11.738;2024-03-02T06:13:05;40.92;;;21.63;;
48040;SDS011;33815;48.386;11.738;2024-03-02T06:15:30;35.67;;;22.30;;
48040;SDS011;33815;48.386;11.738;2024-03-02T06:17:56;34.85;;;20.85;;
48040;SDS011;33815;48.386;11.738;2024-03-02T06:20:21;38.55;;;21.30;;
48040;SDS011;33815;48.386;11.738;2024-03-02T06:22:46;39.50;;;22.45;;
48040;SDS011;33815;48.386;11.738;2024-03-02T06:25:12;42.45;;;22.58;;
48040;SDS011;33815;48.386;11.738;2024-03-02T06:27:38;40.78;;;21.80;;
48040;SDS011;33815;48.386;11.738;2024-03-02T06:30:03;42.00;;;22.57;;
48040;SDS011;33815;48.386;11.738;2024-03-02T06:32:29;41.58;;;22.70;;
48040;SDS011;33815;48.386;11.738;2024-03-02T06:34:54;39.75;;;21.17;;
48040;SDS011;33815;48.386;11.738;2024-03-02T06:37:19;37.83;;;21.38;;
48040;SDS011;33815;48.386;11.738;2024-03-02T06:39:45;34.35;;;21.38;;
48040;SDS011;33815;48.386;11.738;2024-03-02T06:42:10;35.38;;;20.90;;
48040;SDS011;33815;48.386;11.738;2024-03-02T06:44:35;38.20;;;22.25;;
48040;SDS011;33815;48.386;11.738;2024-03-02T06:47:01;34.40;;;21.42;;
48040;SDS011;33815;48.386;11.738;2024-03-02T06:49:26;43.83;;;21.73;;
48040;SDS011;33815;48.386;11.738;2024-03-02T06:51:51;38.05;;;20.25;;
48040;SDS011;33815;48.386;11.738;2024-03-02T06:54:16;36.72;;;20.98;;
48040;SDS011;33815;48.386;11.738;2024-03-02T06:56:42;35.80;;;21.88;;
48040;SDS011;33815;48.386;11.738;2024-03-02T06:59:07;35.38;;;21.65;;
48040;SDS011;33815;48.386;11.738;2024-03-02T07:01:32;36.43;;;21.57;;
48040;SDS011;33815;48.386;11.738;2024-03-02T07:03:57;32.63;;;21.00;;
48040;SDS011;33815;48.386;11.738;2024-03-02T07:06:23;38.40;;;21.57;;
48040;SDS011;33815;48.386;11.738;2024-03-02T07:08:48;42.97;;;24.10;;
48040;SDS011;33815;48.386;11.738;2024-03-02T07:11:13;40.38;;;22.23;;
48040;SDS011;33815;48.386;11.738;2024-03-02T07:13:39;48.13;;;24.63;;
48040;SDS011;33815;48.386;11.738;2024-03-02T07:16:04;42.03;;;22.02;;
48040;SDS011;33815;48.386;11.738;2024-03-02T07:18:35;43.33;;;23.52;;
48040;SDS011;33815;48.386;11.738;2024-03-02T07:21:07;45.85;;;22.95;;
48040;SDS011;33815;48.386;11.738;2024-03-02T07:23:32;38.55;;;22.23;;
48040;SDS011;33815;48.386;11.738;2024-03-02T07:25:57;39.15;;;22.30;;
48040;SDS011;33815;48.386;11.738;2024-03-02T07:28:24;42.05;;;21.90;;
48040;SDS011;33815;48.386;11.738;2024-03-02T07:31:00;40.03;;;22.40;;
48040;SDS011;33815;48.386;11.738;2024-03-02T07:33:26;30.10;;;17.77;;
48040;SDS011;33815;48.386;11.738;2024-03-02T07:35:51;40.83;;;23.05;;
48040;SDS011;33815;48.386;11.738;2024-03-02T07:38:17;47.42;;;25.27;;
48040;SDS011;33815;48.386;11.738;2024-03-02T07:40:42;53.55;;;27.83;;
48040;SDS011;33815;48.386;11.738;2024-03-02T07:43:08;52.80;;;27.90;;
48040;SDS011;33815;48.386;11.738;2024-03-02T07:45:33;61.58;;;32.10;;
48040;SDS011;33815;48.386;11.738;2024-03-02T07:48:00;59.10;;;34.53;;
48040;SDS011;33815;48.386;11.738;2024-03-02T07:50:26;64.05;;;33.67;;
48040;SDS011;33815;48.386;11.738;2024-03-02T07:52:52;65.30;;;33.63;;
48040;SDS011;33815;48.386;11.738;2024-03-02T07:55:17;63.65;;;33.50;;
48040;SDS011;33815;48.386;11.738;2024-03-02T07:57:42;56.42;;;32.55;;
48040;SDS011;33815;48.386;11.738;2024-03-02T08:00:08;58.22;;;32.22;;
48040;SDS011;33815;48.386;11.738;2024-03-02T08:02:34;52.50;;;30.52;;
48040;SDS011;33815;48.386;11.738;2024-03-02T08:05:00;47.97;;;29.40;;
48040;SDS011;33815;48.386;11.738;2024-03-02T08:07:26;62.53;;;29.05;;
48040;SDS011;33815;48.386;11.738;2024-03-02T08:09:51;54.58;;;29.45;;
48040;SDS011;33815;48.386;11.738;2024-03-02T08:12:16;47.20;;;28.40;;
48040;SDS011;33815;48.386;11.738;2024-03-02T08:14:43;45.08;;;28.98;;
48040;SDS011;33815;48.386;11.738;2024-03-02T08:17:08;43.70;;;27.52;;
48040;SDS011;33815;48.386;11.738;2024-03-02T08:19:35;46.53;;;29.05;;
48040;SDS011;33815;48.386;11.738;2024-03-02T08:22:01;52.13;;;26.83;;
48040;SDS011;33815;48.386;11.738;2024-03-02T08:24:27;40.92;;;23.85;;
48040;SDS011;33815;48.386;11.738;2024-03-02T08:26:52;36.58;;;23.73;;
48040;SDS011;33815;48.386;11.738;2024-03-02T08:29:17;37.03;;;24.63;;
48040;SDS011;33815;48.386;11.738;2024-03-02T08:31:43;35.22;;;23.15;;
48040;SDS011;33815;48.386;11.738;2024-03-02T08:34:08;40.53;;;26.13;;
48040;SDS011;33815;48.386;11.738;2024-03-02T08:36:34;39.83;;;25.77;;
48040;SDS011;33815;48.386;11.738;2024-03-02T08:38:59;41.85;;;24.70;;
48040;SDS011;33815;48.386;11.738;2024-03-02T08:41:24;42.60;;;26.98;;
48040;SDS011;33815;48.386;11.738;2024-03-02T08:43:50;40.50;;;27.52;;
48040;SDS011;33815;48.386;11.738;2024-03-02T08:46:15;41.17;;;26.08;;
48040;SDS011;33815;48.386;11.738;2024-03-02T08:48:40;41.85;;;25.20;;
48040;SDS011;33815;48.386;11.738;2024-03-02T08:51:05;41.70;;;25.42;;
48040;SDS011;33815;48.386;11.738;2024-03-02T08:53:32;38.45;;;24.98;;
48040;SDS011;33815;48.386;11.738;2024-03-02T08:55:58;36.90;;;23.63;;
48040;SDS011;33815;48.386;11.738;2024-03-02T08:58:23;43.08;;;24.75;;
48040;SDS011;33815;48.386;11.738;2024-03-02T09:00:49;35.65;;;21.92;;
48040;SDS011;33815;48.386;11.738;2024-03-02T09:03:14;42.20;;;26.00;;
48040;SDS011;33815;48.386;11.738;2024-03-02T09:05:39;39.45;;;24.27;;
48040;SDS011;33815;48.386;11.738;2024-03-02T09:08:05;37.53;;;22.83;;
48040;SDS011;33815;48.386;11.738;2024-03-02T09:10:30;37.38;;;24.33;;
48040;SDS011;33815;48.386;11.738;2024-03-02T09:12:56;39.70;;;23.57;;
48040;SDS011;33815;48.386;11.738;2024-03-02T09:15:21;35.85;;;23.33;;
48040;SDS011;33815;48.386;11.738;2024-03-02T09:17:46;34.78;;;23.25;;
48040;SDS011;33815;48.386;11.738;2024-03-02T09:20:11;38.45;;;22.70;;
48040;SDS011;33815;48.386;11.738;2024-03-02T09:22:37;37.58;;;23.00;;
48040;SDS011;33815;48.386;11.738;2024-03-02T09:25:02;38.67;;;23.35;;
48040;SDS011;33815;48.386;11.738;2024-03-02T09:27:28;39.30;;;23.60;;
48040;SDS011;33815;48.386;11.738;2024-03-02T09:29:53;37.70;;;23.10;;
48040;SDS011;33815;48.386;11.738;2024-03-02T09:32:18;39.60;;;24.83;;
48040;SDS011;33815;48.386;11.738;2024-03-02T09:34:44;40.60;;;25.10;;
48040;SDS011;33815;48.386;11.738;2024-03-02T09:37:09;36.93;;;23.17;;
48040;SDS011;33815;48.386;11.738;2024-03-02T09:39:34;43.80;;;25.60;;
48040;SDS011;33815;48.386;11.738;2024-03-02T09:41:59;44.15;;;25.85;;
48040;SDS011;33815;48.386;11.738;2024-03-02T09:44:25;39.75;;;24.85;;
48040;SDS011;33815;48.386;11.738;2024-03-02T09:46:51;44.58;;;25.30;;
48040;SDS011;33815;48.386;11.738;2024-03-02T09:49:17;41.00;;;25.55;;
48040;SDS011;33815;48.386;11.738;2024-03-02T09:51:46;41.90;;;26.50;;
48040;SDS011;33815;48.386;11.738;2024-03-02T09:54:13;41.83;;;25.92;;
48040;SDS011;33815;48.386;11.738;2024-03-02T09:56:40;44.90;;;26.90;;
48040;SDS011;33815;48.386;11.738;2024-03-02T09:59:05;48.43;;;26.17;;
48040;SDS011;33815;48.386;11.738;2024-03-02T10:01:30;43.42;;;26.85;;
48040;SDS011;33815;48.386;11.738;2024-03-02T10:03:58;44.53;;;25.98;;
48040;SDS011;33815;48.386;11.738;2024-03-02T10:06:25;46.22;;;27.27;;
48040;SDS011;33815;48.386;11.738;2024-03-02T10:08:51;40.85;;;26.10;;
48040;SDS011;33815;48.386;11.738;2024-03-02T10:11:30;41.63;;;27.77;;
48040;SDS011;33815;48.386;11.738;2024-03-02T10:14:05;40.10;;;25.42;;
48040;SDS011;33815;48.386;11.738;2024-03-02T10:16:34;42.88;;;27.13;;
48040;SDS011;33815;48.386;11.738;2024-03-02T10:19:19;43.78;;;26.83;;
48040;SDS011;33815;48.386;11.738;2024-03-02T10:21:47;41.85;;;26.65;;
48040;SDS011;33815;48.386;11.738;2024-03-02T10:24:16;47.35;;;27.88;;
48040;SDS011;33815;48.386;11.738;2024-03-02T10:26:42;42.63;;;27.17;;
48040;SDS011;33815;48.386;11.738;2024-03-02T10:29:11;44.00;;;27.77;;
48040;SDS011;33815;48.386;11.738;2024-03-02T10:31:40;45.35;;;29.00;;
48040;SDS011;33815;48.386;11.738;2024-03-02T10:34:07;47.50;;;27.27;;
48040;SDS011;33815;48.386;11.738;2024-03-02T10:36:33;51.35;;;28.25;;
48040;SDS011;33815;48.386;11.738;2024-03-02T10:39:05;42.00;;;26.10;;
48040;SDS011;33815;48.386;11.738;2024-03-02T10:41:32;43.42;;;26.17;;
48040;SDS011;33815;48.386;11.738;2024-03-02T10:44:02;44.10;;;24.98;;
48040;SDS011;33815;48.386;11.738;2024-03-02T10:46:29;40.97;;;24.17;;
48040;SDS011;33815;48.386;11.738;2024-03-02T10:48:59;44.67;;;25.08;;
48040;SDS011;33815;48.386;11.738;2024-03-02T10:51:26;40.28;;;25.45;;
48040;SDS011;33815;48.386;11.738;2024-03-02T10:53:53;39.70;;;23.92;;
48040;SDS011;33815;48.386;11.738;2024-03-02T10:56:21;41.13;;;24.77;;
48040;SDS011;33815;48.386;11.738;2024-03-02T11:01:40;28.00;;;16.23;;
48040;SDS011;33815;48.386;11.738;2024-03-02T11:04:08;39.92;;;24.42;;
48040;SDS011;33815;48.386;11.738;2024-03-02T11:06:34;36.05;;;23.30;;
48040;SDS011;33815;48.386;11.738;2024-03-02T11:09:06;37.33;;;23.85;;
48040;SDS011;33815;48.386;11.738;2024-03-02T11:11:37;38.50;;;24.45;;
48040;SDS011;33815;48.386;11.738;2024-03-02T11:14:07;36.72;;;23.52;;
48040;SDS011;33815;48.386;11.738;2024-03-02T11:16:38;34.20;;;21.95;;
48040;SDS011;33815;48.386;11.738;2024-03-02T11:19:06;35.05;;;21.73;;
48040;SDS011;33815;48.386;11.738;2024-03-02T11:21:35;34.80;;;21.58;;
48040;SDS011;33815;48.386;11.738;2024-03-02T11:24:19;30.15;;;20.15;;
48040;SDS011;33815;48.386;11.738;2024-03-02T11:26:46;31.85;;;20.58;;
48040;SDS011;33815;48.386;11.738;2024-03-02T11:32:05;26.58;;;18.15;;
48040;SDS011;33815;48.386;11.738;2024-03-02T11:34:46;27.10;;;17.77;;
48040;SDS011;33815;48.386;11.738;2024-03-02T11:37:14;26.45;;;17.05;;
48040;SDS011;33815;48.386;11.738;2024-03-02T11:39:40;31.13;;;18.45;;
48040;SDS011;33815;48.386;11.738;2024-03-02T11:42:07;25.88;;;17.52;;
48040;SDS011;33815;48.386;11.738;2024-03-02T11:44:38;26.52;;;16.65;;
48040;SDS011;33815;48.386;11.738;2024-03-02T11:47:05;24.48;;;16.92;;
48040;SDS011;33815;48.386;11.738;2024-03-02T11:49:38;25.58;;;16.92;;
48040;SDS011;33815;48.386;11.738;2024-03-02T11:52:12;25.92;;;16.80;;
48040;SDS011;33815;48.386;11.738;2024-03-02T11:54:39;25.50;;;16.30;;
48040;SDS011;33815;48.386;11.738;2024-03-02T11:57:06;26.88;;;17.35;;
48040;SDS011;33815;48.386;11.738;2024-03-02T11:59:32;24.52;;;16.40;;
48040;SDS011;33815;48.386;11.738;2024-03-02T12:01:58;24.85;;;16.55;;
48040;SDS011;33815;48.386;11.738;2024-03-02T12:04:24;26.23;;;16.52;;
48040;SDS011;33815;48.386;11.738;2024-03-02T12:06:57;24.30;;;15.73;;
48040;SDS011;33815;48.386;11.738;2024-03-02T12:09:27;21.92;;;15.20;;
48040;SDS011;33815;48.386;11.738;2024-03-02T12:12:11;20.85;;;15.00;;
48040;SDS011;33815;48.386;11.738;2024-03-02T12:14:37;24.20;;;15.98;;
48040;SDS011;33815;48.386;11.738;2024-03-02T12:17:06;24.27;;;14.15;;
48040;SDS011;33815;48.386;11.738;2024-03-02T12:19:32;21.52;;;13.57;;
48040;SDS011;33815;48.386;11.738;2024-03-02T12:21:58;23.15;;;13.93;;
48040;SDS011;33815;48.386;11.738;2024-03-02T12:24:30;22.50;;;14.57;;
48040;SDS011;33815;48.386;11.738;2024-03-02T12:26:55;22.48;;;13.70;;
48040;SDS011;33815;48.386;11.738;2024-03-02T12:29:22;25.80;;;14.38;;
48040;SDS011;33815;48.386;11.738;2024-03-02T12:31:49;22.25;;;13.75;;
48040;SDS011;33815;48.386;11.738;2024-03-02T12:34:15;20.15;;;13.63;;
48040;SDS011;33815;48.386;11.738;2024-03-02T12:36:42;23.17;;;14.10;;
48040;SDS011;33815;48.386;11.738;2024-03-02T12:39:10;20.58;;;13.48;;
48040;SDS011;33815;48.386;11.738;2024-03-02T12:41:36;25.10;;;14.65;;
48040;SDS011;33815;48.386;11.738;2024-03-02T12:44:02;23.92;;;14.93;;
48040;SDS011;33815;48.386;11.738;2024-03-02T12:46:28;22.55;;;14.00;;
48040;SDS011;33815;48.386;11.738;2024-03-02T12:48:53;22.90;;;15.20;;
48040;SDS011;33815;48.386;11.738;2024-03-02T12:51:19;21.90;;;14.77;;
48040;SDS011;33815;48.386;11.738;2024-03-02T12:53:44;26.20;;;14.38;;
48040;SDS011;33815;48.386;11.738;2024-03-02T12:56:09;25.25;;;15.13;;
48040;SDS011;33815;48.386;11.738;2024-03-02T12:58:41;23.90;;;15.30;;
48040;SDS011;33815;48.386;11.738;2024-03-02T13:01:07;24.25;;;15.82;;
48040;SDS011;33815;48.386;11.738;2024-03-02T13:03:40;22.92;;;15.23;;
48040;SDS011;33815;48.386;11.738;2024-03-02T13:06:06;22.30;;;15.75;;
48040;SDS011;33815;48.386;11.738;2024-03-02T13:08:32;24.75;;;17.17;;
48040;SDS011;33815;48.386;11.738;2024-03-02T13:10:58;25.50;;;16.63;;
48040;SDS011;33815;48.386;11.738;2024-03-02T13:13:23;26.15;;;16.85;;
48040;SDS011;33815;48.386;11.738;2024-03-02T13:15:49;22.02;;;14.73;;
48040;SDS011;33815;48.386;11.738;2024-03-02T13:18:14;20.67;;;14.83;;
48040;SDS011;33815;48.386;11.738;2024-03-02T13:20:39;21.90;;;13.43;;
48040;SDS011;33815;48.386;11.738;2024-03-02T13:23:05;21.35;;;15.57;;
48040;SDS011;33815;48.386;11.738;2024-03-02T13:25:30;23.48;;;15.95;;
48040;SDS011;33815;48.386;11.738;2024-03-02T13:27:56;27.27;;;16.50;;
48040;SDS011;33815;48.386;11.738;2024-03-02T13:30:22;23.35;;;15.93;;
48040;SDS011;33815;48.386;11.738;2024-03-02T13:32:47;27.03;;;15.63;;
48040;SDS011;33815;48.386;11.738;2024-03-02T13:35:12;23.43;;;15.37;;
48040;SDS011;33815;48.386;11.738;2024-03-02T13:37:39;21.40;;;14.00;;
48040;SDS011;33815;48.386;11.738;2024-03-02T13:40:04;24.30;;;15.47;;
48040;SDS011;33815;48.386;11.738;2024-03-02T13:42:30;23.10;;;16.05;;
48040;SDS011;33815;48.386;11.738;2024-03-02T13:44:56;23.60;;;14.20;;
48040;SDS011;33815;48.386;11.738;2024-03-02T13:47:21;22.40;;;15.88;;
48040;SDS011;33815;48.386;11.738;2024-03-02T13:49:46;24.60;;;15.68;;
48040;SDS011;33815;48.386;11.738;2024-03-02T13:52:13;25.77;;;15.00;;
48040;SDS011;33815;48.386;11.738;2024-03-02T13:54:43;21.92;;;15.25;;
48040;SDS011;33815;48.386;11.738;2024-03-02T13:57:10;26.08;;;17.10;;
48040;SDS011;33815;48.386;11.738;2024-03-02T13:59:36;23.63;;;16.30;;
48040;SDS011;33815;48.386;11.738;2024-03-02T14:02:02;24.20;;;16.52;;
48040;SDS011;33815;48.386;11.738;2024-03-02T14:04:30;26.17;;;16.60;;
48040;SDS011;33815;48.386;11.738;2024-03-02T14:06:56;25.13;;;16.27;;
48040;SDS011;33815;48.386;11.738;2024-03-02T14:09:21;32.28;;;17.65;;
48040;SDS011;33815;48.386;11.738;2024-03-02T14:11:49;26.20;;;16.90;;
48040;SDS011;33815;48.386;11.738;2024-03-02T14:14:15;25.65;;;15.85;;